メインページ
METAR-TAF:

METAR-TAF

空港 :

マドリード, スペイン

アドルフォ・スアレス・マドリード=バラハス空港

緯度: 40-27N, 経度: 003-33W, 海抜: 609m

現時点の気象観測

当レポートは31分前の01:00(UTC)に作成
北/北西の風 3kt
気温 1°C
湿度 100%
気圧 1026 hPa
視程10km以上
1,500メートル以下は雲なし、積乱雲なし

METAR: LEMD 180100Z 34003KT CAVOK 01/01 Q1026 NOSIG

時間: 02:31 (01:31 UTC)

予報

当レポートは2時間31分前の23:00(UTC)に作成
予報は18日の 00時(UTC)から 19日の 06時(UTC)まで有効
変向風 5kt
視程10km以上
1,500メートル以下は雲なし、積乱雲なし
確率 40% :
18日の 04時(UTC)から 18日の 10時(UTC)まで一時的に
視程: 3000m
高度700ftの千切れ雲あり

TAF: LEMD 172300Z 1800/1906 VRB05KT CAVOK TX13/1815Z TN00/1806Z PROB40 TEMPO 1804/1810 3000 BR BKN007

4,000以上の空港の気象観測と天気予報(METAR報とTAF報)

利用可能な観測所は地図上に黄色い丸と赤い丸で示す。

丸の上にカーソルを重ねると観測所名を参照できる。

次にクリックすると気象観測と天気予報を参照できる。

マップの切り替え:黒色「×」印の緑ボタンをクリックして拡大、「-」印の緑ボタンをクリックして縮小、緑色の三角印をクリックして隣りの地図に切り替え


METAR-TAF: